createdAt,value
2019-02-06T00:01:08.366Z,17.27
2019-02-06T00:06:13.231Z,18.03
2019-02-06T00:11:22.764Z,16.93
2019-02-06T00:16:27.045Z,14.57
2019-02-06T00:21:31.994Z,16.10
2019-02-06T00:26:36.663Z,16.20
2019-02-06T00:31:38.698Z,15.87
2019-02-06T00:36:40.884Z,16.07
2019-02-06T00:41:47.929Z,16.17
2019-02-06T00:46:50.361Z,16.60
2019-02-06T00:51:52.380Z,16.37
2019-02-06T00:56:54.563Z,15.60
2019-02-06T01:01:56.683Z,14.60
2019-02-06T01:06:58.731Z,15.07
2019-02-06T01:12:00.759Z,15.30
2019-02-06T01:17:07.999Z,14.83
2019-02-06T01:22:10.129Z,13.73
2019-02-06T01:27:12.153Z,14.20
2019-02-06T01:32:14.162Z,14.20
2019-02-06T01:37:16.184Z,12.57
2019-02-06T01:42:18.270Z,12.57
2019-02-06T01:47:20.583Z,13.27
2019-02-06T01:52:25.136Z,12.27
2019-02-06T01:57:27.474Z,12.57
2019-02-06T02:02:29.848Z,11.87
2019-02-06T02:07:31.850Z,12.60
2019-02-06T02:12:33.855Z,12.43
2019-02-06T02:17:35.850Z,12.43
2019-02-06T02:22:39.963Z,12.70
2019-02-06T02:27:41.998Z,12.20
2019-02-06T02:32:44.064Z,11.87
2019-02-06T02:37:46.148Z,12.97
2019-02-06T02:42:48.155Z,11.77
2019-02-06T02:47:50.171Z,11.03
2019-02-06T02:52:53.202Z,10.87
2019-02-06T02:57:55.273Z,11.53
2019-02-06T03:03:05.657Z,11.97
2019-02-06T03:08:07.687Z,11.87
2019-02-06T03:13:12.457Z,10.97
2019-02-06T03:18:15.221Z,10.87
2019-02-06T03:23:17.235Z,11.60
2019-02-06T03:28:19.575Z,12.17
2019-02-06T03:33:21.929Z,12.00
2019-02-06T03:38:26.256Z,11.37
2019-02-06T03:43:30.315Z,12.43
2019-02-06T03:48:32.528Z,11.80
2019-02-06T03:53:35.869Z,11.43
2019-02-06T03:58:37.877Z,11.87
2019-02-06T04:03:42.291Z,12.40
2019-02-06T04:08:46.417Z,12.80
2019-02-06T04:13:48.532Z,12.83
2019-02-06T04:18:50.567Z,12.93
2019-02-06T04:23:52.625Z,11.40
2019-02-06T04:28:54.646Z,12.63
2019-02-06T04:33:57.203Z,12.93
2019-02-06T04:38:59.263Z,13.30
2019-02-06T04:44:04.354Z,12.90
2019-02-06T04:49:06.412Z,12.60
2019-02-06T04:54:11.072Z,12.37
2019-02-06T04:59:13.617Z,13.50
2019-02-06T05:04:15.878Z,12.90
2019-02-06T05:09:17.929Z,13.63
2019-02-06T05:14:20.100Z,13.83
2019-02-06T05:19:24.413Z,12.90
2019-02-06T05:24:26.558Z,13.30
2019-02-06T05:29:28.545Z,12.90
2019-02-06T05:34:30.794Z,13.03
2019-02-06T05:39:33.218Z,13.43
2019-02-06T05:44:37.164Z,14.27
2019-02-06T05:49:39.172Z,14.33
2019-02-06T05:54:41.206Z,14.40
2019-02-06T05:59:48.204Z,14.83
2019-02-06T06:04:51.798Z,14.80
2019-02-06T06:09:56.939Z,15.10
2019-02-06T06:14:59.263Z,14.43
2019-02-06T06:20:01.859Z,14.97
2019-02-06T06:25:05.477Z,16.40
2019-02-06T06:30:09.712Z,16.97
2019-02-06T06:35:11.926Z,17.03
2019-02-06T06:40:16.565Z,17.13
2019-02-06T06:45:22.937Z,16.87
2019-02-06T06:50:24.952Z,17.00
2019-02-06T06:55:30.023Z,17.77
2019-02-06T07:00:32.380Z,18.07
2019-02-06T07:05:34.764Z,17.70
2019-02-06T07:10:37.372Z,18.50
2019-02-06T07:15:46.319Z,19.03
2019-02-06T07:20:48.347Z,19.20
2019-02-06T07:25:50.420Z,20.20
2019-02-06T07:30:52.747Z,20.37
2019-02-06T07:35:55.313Z,20.67
2019-02-06T07:41:03.220Z,21.83
2019-02-06T07:46:05.319Z,20.67
2019-02-06T07:51:07.335Z,22.70
2019-02-06T07:56:09.547Z,22.57
2019-02-06T08:01:11.749Z,23.83
2019-02-06T08:06:13.891Z,23.73
2019-02-06T08:11:15.939Z,23.30
2019-02-06T08:16:20.860Z,24.10
2019-02-06T08:21:24.433Z,25.43
2019-02-06T08:26:27.926Z,25.43
2019-02-06T08:31:29.976Z,26.20
2019-02-06T08:36:32.419Z,24.73
2019-02-06T08:41:34.815Z,25.37
2019-02-06T08:46:37.059Z,27.07
2019-02-06T08:51:39.086Z,25.53
2019-02-06T08:56:41.142Z,26.70
2019-02-06T09:01:43.370Z,27.87
2019-02-06T09:06:45.667Z,26.40
2019-02-06T09:11:47.809Z,26.60
2019-02-06T09:16:50.110Z,26.10
2019-02-06T09:21:52.378Z,27.03
2019-02-06T09:26:54.755Z,28.80
2019-02-06T09:31:59.350Z,30.30
2019-02-06T09:37:00.888Z,28.70
2019-02-06T09:42:05.709Z,28.00
2019-02-06T09:47:08.056Z,28.40
2019-02-06T09:52:10.085Z,28.00
2019-02-06T09:57:13.865Z,29.33
2019-02-06T10:02:16.015Z,28.97
2019-02-06T10:07:18.068Z,29.43
2019-02-06T10:12:20.099Z,30.23
2019-02-06T10:17:22.176Z,26.73
2019-02-06T10:22:24.315Z,28.13
2019-02-06T10:27:26.951Z,27.50
2019-02-06T10:32:29.032Z,25.20
2019-02-06T10:37:33.590Z,25.37
2019-02-06T10:42:37.678Z,26.07
2019-02-06T10:47:41.355Z,26.60
2019-02-06T10:52:43.436Z,27.90
2019-02-06T10:57:50.422Z,26.20
2019-02-06T11:02:52.667Z,27.10
2019-02-06T11:07:55.938Z,26.70
2019-02-06T11:12:58.376Z,25.03
2019-02-06T11:18:00.398Z,24.83
2019-02-06T11:23:02.755Z,25.70
2019-02-06T11:28:08.178Z,25.93
2019-02-06T11:33:10.270Z,26.60
2019-02-06T11:38:12.372Z,24.20
2019-02-06T11:43:14.780Z,24.53
2019-02-06T11:48:16.856Z,24.90
2019-02-06T11:53:27.011Z,26.23
2019-02-06T11:58:29.188Z,25.93
2019-02-06T12:03:33.092Z,26.17
2019-02-06T12:08:35.126Z,27.27
2019-02-06T12:13:37.313Z,26.33
2019-02-06T12:18:39.366Z,28.57
2019-02-06T12:23:47.693Z,28.53
2019-02-06T12:28:51.739Z,30.13
2019-02-06T12:33:53.776Z,29.23
2019-02-06T12:38:55.798Z,28.83
2019-02-06T12:43:58.178Z,27.13
2019-02-06T12:49:00.203Z,25.37
2019-02-06T12:54:05.123Z,23.47
2019-02-06T12:59:09.852Z,22.57
2019-02-06T13:04:11.882Z,21.63
2019-02-06T13:09:15.008Z,24.10
2019-02-06T13:14:17.386Z,22.87
2019-02-06T13:19:21.785Z,23.30
2019-02-06T13:24:24.328Z,23.37
2019-02-06T13:29:26.384Z,24.77
2019-02-06T13:34:33.603Z,23.40
2019-02-06T13:39:35.640Z,25.00
2019-02-06T13:44:41.604Z,24.83
2019-02-06T13:49:47.049Z,25.77
2019-02-06T13:54:49.508Z,26.53
2019-02-06T13:59:51.497Z,26.23
2019-02-06T14:04:55.617Z,24.50
2019-02-06T14:09:57.631Z,26.03
2019-02-06T14:15:01.580Z,25.60
2019-02-06T14:20:05.929Z,27.67
2019-02-06T14:26:22.199Z,27.30
2019-02-06T14:32:04.385Z,24.67
2019-02-06T14:37:43.247Z,23.03
2019-02-06T14:43:06.849Z,23.27
2019-02-06T14:48:20.872Z,23.23
2019-02-06T14:54:08.991Z,23.63
2019-02-06T14:59:55.040Z,23.40
2019-02-06T15:05:36.263Z,23.50
2019-02-06T15:11:00.373Z,21.83
2019-02-06T15:16:47.513Z,23.43
2019-02-06T15:22:26.005Z,25.33
2019-02-06T15:28:12.570Z,24.97
2019-02-06T15:33:47.383Z,25.13
2019-02-06T15:39:40.638Z,24.73
2019-02-06T15:45:14.595Z,27.07
2019-02-06T15:50:36.624Z,25.53
2019-02-06T15:56:15.395Z,27.67
2019-02-06T16:01:39.823Z,27.83
2019-02-06T16:07:02.874Z,29.83
2019-02-06T16:12:43.288Z,27.67
2019-02-06T16:18:30.640Z,27.53
2019-02-06T16:24:26.821Z,29.93
2019-02-06T16:30:19.975Z,31.10
2019-02-06T16:36:18.653Z,29.30
2019-02-06T16:41:37.107Z,29.20
2019-02-06T16:47:23.983Z,29.00
2019-02-06T16:53:13.910Z,28.93
2019-02-06T16:58:55.070Z,28.63
2019-02-06T17:04:27.176Z,26.83
2019-02-06T17:09:57.068Z,26.87
2019-02-06T17:15:33.256Z,25.50
2019-02-06T17:21:15.456Z,25.47
2019-02-06T17:26:59.400Z,25.03
2019-02-06T17:32:11.641Z,26.37
2019-02-06T17:37:36.872Z,25.60
2019-02-06T17:43:01.262Z,25.47
2019-02-06T17:48:32.833Z,27.87
2019-02-06T17:54:00.051Z,28.80
2019-02-06T17:59:04.349Z,30.77
2019-02-06T18:04:14.184Z,30.03
2019-02-06T18:09:17.396Z,31.33
2019-02-06T18:14:22.804Z,31.77
2019-02-06T18:19:35.381Z,32.30
2019-02-06T18:24:37.575Z,32.03
2019-02-06T18:29:41.653Z,32.03
2019-02-06T18:34:43.666Z,32.70
2019-02-06T18:39:45.646Z,31.60
2019-02-06T18:44:49.913Z,31.40
2019-02-06T18:49:51.945Z,32.50
2019-02-06T18:54:54.023Z,31.93
2019-02-06T18:59:58.346Z,35.20
2019-02-06T19:05:00.484Z,33.33
2019-02-06T19:10:05.040Z,33.57
2019-02-06T19:15:10.465Z,34.13
2019-02-06T19:20:12.902Z,33.33
2019-02-06T19:25:16.998Z,34.03
2019-02-06T19:30:27.904Z,35.07
2019-02-06T19:35:30.283Z,33.87
2019-02-06T19:40:37.373Z,33.53
2019-02-06T19:45:39.668Z,33.47
2019-02-06T19:50:46.209Z,35.53
2019-02-06T19:55:48.392Z,35.17
2019-02-06T20:00:50.495Z,36.30
2019-02-06T20:05:52.947Z,37.17
2019-02-06T20:10:55.310Z,34.83
2019-02-06T20:15:57.461Z,34.80
2019-02-06T20:20:59.780Z,35.83
2019-02-06T20:26:04.637Z,33.20
2019-02-06T20:31:06.636Z,34.10
2019-02-06T20:36:08.750Z,33.40
2019-02-06T20:41:10.808Z,33.67
2019-02-06T20:46:13.237Z,34.97
2019-02-06T20:51:15.263Z,32.83
2019-02-06T20:56:18.016Z,34.33
2019-02-06T21:01:23.421Z,34.37
2019-02-06T21:06:28.427Z,31.40
2019-02-06T21:11:30.437Z,32.33
2019-02-06T21:16:32.503Z,30.53
2019-02-06T21:21:34.607Z,30.63
2019-02-06T21:26:36.795Z,30.63
2019-02-06T21:31:41.776Z,32.07
2019-02-06T21:36:46.564Z,29.67
2019-02-06T21:41:48.639Z,31.30
2019-02-06T21:46:54.079Z,30.73
2019-02-06T21:51:59.702Z,32.87
2019-02-06T21:57:01.766Z,32.43
2019-02-06T22:02:03.790Z,31.70
2019-02-06T22:07:08.975Z,34.00
2019-02-06T22:12:10.999Z,33.73
2019-02-06T22:17:27.058Z,35.27
2019-02-06T22:22:29.398Z,36.80
2019-02-06T22:27:34.269Z,37.23
2019-02-06T22:32:38.875Z,39.07
2019-02-06T22:37:48.610Z,41.70
2019-02-06T22:42:54.547Z,41.30
2019-02-06T22:47:56.607Z,43.43
2019-02-06T22:52:58.723Z,41.20
2019-02-06T22:58:02.037Z,38.67
2019-02-06T23:03:04.374Z,42.13
2019-02-06T23:08:06.403Z,41.63
2019-02-06T23:13:08.634Z,38.90
2019-02-06T23:18:11.905Z,39.97
2019-02-06T23:23:14.149Z,38.43
2019-02-06T23:28:16.522Z,36.07
2019-02-06T23:33:21.481Z,34.50
2019-02-06T23:38:28.489Z,32.40
2019-02-06T23:43:32.628Z,31.93
2019-02-06T23:48:34.650Z,31.33
2019-02-06T23:53:36.689Z,30.60
2019-02-06T23:58:39.028Z,29.53
